sensor_id;sensor_type;location;lat;lon;timestamp;temperature;humidity
36372;DHT22;22398;51.346;12.372;2023-04-15T00:01:30;7.00;99.90
36372;DHT22;22398;51.346;12.372;2023-04-15T00:06:36;7.00;99.90
36372;DHT22;22398;51.346;12.372;2023-04-15T00:11:42;6.90;99.90
36372;DHT22;22398;51.346;12.372;2023-04-15T00:16:45;6.90;99.90
36372;DHT22;22398;51.346;12.372;2023-04-15T00:21:51;6.90;99.90
36372;DHT22;22398;51.346;12.372;2023-04-15T00:26:56;6.80;99.90
36372;DHT22;22398;51.346;12.372;2023-04-15T00:32:00;6.80;99.90
36372;DHT22;22398;51.346;12.372;2023-04-15T00:37:03;6.80;99.90
36372;DHT22;22398;51.346;12.372;2023-04-15T00:42:09;6.70;99.90
36372;DHT22;22398;51.346;12.372;2023-04-15T00:47:14;6.70;99.90
36372;DHT22;22398;51.346;12.372;2023-04-15T00:52:18;6.80;99.90
36372;DHT22;22398;51.346;12.372;2023-04-15T00:57:23;6.70;99.90
36372;DHT22;22398;51.346;12.372;2023-04-15T01:02:28;6.70;99.90
36372;DHT22;22398;51.346;12.372;2023-04-15T01:07:31;6.70;99.90
36372;DHT22;22398;51.346;12.372;2023-04-15T01:12:37;6.70;99.90
36372;DHT22;22398;51.346;12.372;2023-04-15T01:17:41;6.70;99.90
36372;DHT22;22398;51.346;12.372;2023-04-15T01:22:45;6.70;99.90
36372;DHT22;22398;51.346;12.372;2023-04-15T01:27:50;6.70;99.90
36372;DHT22;22398;51.346;12.372;2023-04-15T01:32:54;6.70;99.90
36372;DHT22;22398;51.346;12.372;2023-04-15T01:38:02;6.70;99.90
36372;DHT22;22398;51.346;12.372;2023-04-15T01:43:08;6.70;99.90
36372;DHT22;22398;51.346;12.372;2023-04-15T01:48:12;6.70;99.90
36372;DHT22;22398;51.346;12.372;2023-04-15T01:53:15;6.70;99.90
36372;DHT22;22398;51.346;12.372;2023-04-15T01:58:20;6.70;99.90
36372;DHT22;22398;51.346;12.372;2023-04-15T02:03:24;6.70;99.90
36372;DHT22;22398;51.346;12.372;2023-04-15T02:08:29;6.70;99.90
36372;DHT22;22398;51.346;12.372;2023-04-15T02:13:34;6.70;99.90
36372;DHT22;22398;51.346;12.372;2023-04-15T02:18:38;6.70;99.90
36372;DHT22;22398;51.346;12.372;2023-04-15T02:23:43;6.60;99.90
36372;DHT22;22398;51.346;12.372;2023-04-15T02:28:50;6.60;99.90
36372;DHT22;22398;51.346;12.372;2023-04-15T02:33:54;6.60;99.90
36372;DHT22;22398;51.346;12.372;2023-04-15T02:38:57;6.50;99.90
36372;DHT22;22398;51.346;12.372;2023-04-15T02:44:04;6.60;99.90
36372;DHT22;22398;51.346;12.372;2023-04-15T02:49:10;6.60;99.90
36372;DHT22;22398;51.346;12.372;2023-04-15T02:54:13;6.50;99.90
36372;DHT22;22398;51.346;12.372;2023-04-15T02:59:19;6.50;99.90
36372;DHT22;22398;51.346;12.372;2023-04-15T03:04:22;6.50;99.90
36372;DHT22;22398;51.346;12.372;2023-04-15T03:09:25;6.50;99.90
36372;DHT22;22398;51.346;12.372;2023-04-15T03:14:33;6.50;99.90
36372;DHT22;22398;51.346;12.372;2023-04-15T03:19:37;6.50;99.90
36372;DHT22;22398;51.346;12.372;2023-04-15T03:24:42;6.50;99.90
36372;DHT22;22398;51.346;12.372;2023-04-15T03:29:47;6.50;99.90
36372;DHT22;22398;51.346;12.372;2023-04-15T03:34:52;6.50;99.90
36372;DHT22;22398;51.346;12.372;2023-04-15T03:39:56;6.60;99.90
36372;DHT22;22398;51.346;12.372;2023-04-15T03:45:01;6.60;99.90
36372;DHT22;22398;51.346;12.372;2023-04-15T03:50:05;6.60;99.90
36372;DHT22;22398;51.346;12.372;2023-04-15T03:55:09;6.60;99.90
36372;DHT22;22398;51.346;12.372;2023-04-15T04:00:14;6.60;99.90
36372;DHT22;22398;51.346;12.372;2023-04-15T04:05:18;6.60;99.90
36372;DHT22;22398;51.346;12.372;2023-04-15T04:10:22;6.60;99.90
36372;DHT22;22398;51.346;12.372;2023-04-15T04:15:27;6.50;99.90
36372;DHT22;22398;51.346;12.372;2023-04-15T04:20:31;6.60;99.90
36372;DHT22;22398;51.346;12.372;2023-04-15T04:25:34;6.60;99.90
36372;DHT22;22398;51.346;12.372;2023-04-15T04:30:39;6.60;99.90
36372;DHT22;22398;51.346;12.372;2023-04-15T04:35:43;6.60;99.90
36372;DHT22;22398;51.346;12.372;2023-04-15T04:40:46;6.60;99.90
36372;DHT22;22398;51.346;12.372;2023-04-15T04:45:52;6.60;99.90
36372;DHT22;22398;51.346;12.372;2023-04-15T04:50:55;6.70;99.90
36372;DHT22;22398;51.346;12.372;2023-04-15T04:55:59;6.70;99.90
36372;DHT22;22398;51.346;12.372;2023-04-15T05:01:04;6.70;99.90
36372;DHT22;22398;51.346;12.372;2023-04-15T05:06:08;6.70;99.90
36372;DHT22;22398;51.346;12.372;2023-04-15T05:11:12;6.70;99.90
36372;DHT22;22398;51.346;12.372;2023-04-15T05:16:17;6.80;99.90
36372;DHT22;22398;51.346;12.372;2023-04-15T05:21:21;6.80;99.90
36372;DHT22;22398;51.346;12.372;2023-04-15T05:26:25;6.80;99.90
36372;DHT22;22398;51.346;12.372;2023-04-15T05:31:30;6.80;99.90
36372;DHT22;22398;51.346;12.372;2023-04-15T05:36:33;6.80;99.90
36372;DHT22;22398;51.346;12.372;2023-04-15T05:41:37;6.80;99.90
36372;DHT22;22398;51.346;12.372;2023-04-15T05:46:42;6.90;99.90
36372;DHT22;22398;51.346;12.372;2023-04-15T05:51:46;6.90;99.90
36372;DHT22;22398;51.346;12.372;2023-04-15T05:56:50;6.90;99.90
36372;DHT22;22398;51.346;12.372;2023-04-15T06:01:55;6.90;99.90
36372;DHT22;22398;51.346;12.372;2023-04-15T06:06:59;6.90;99.90
36372;DHT22;22398;51.346;12.372;2023-04-15T06:12:03;6.90;99.90
36372;DHT22;22398;51.346;12.372;2023-04-15T06:17:09;6.90;99.90
36372;DHT22;22398;51.346;12.372;2023-04-15T06:22:15;7.00;99.90
36372;DHT22;22398;51.346;12.372;2023-04-15T06:27:19;7.00;99.90
36372;DHT22;22398;51.346;12.372;2023-04-15T06:32:25;7.10;99.90
36372;DHT22;22398;51.346;12.372;2023-04-15T06:37:29;7.10;99.90
36372;DHT22;22398;51.346;12.372;2023-04-15T06:42:34;7.10;99.90
36372;DHT22;22398;51.346;12.372;2023-04-15T06:47:39;7.10;99.90
36372;DHT22;22398;51.346;12.372;2023-04-15T06:52:43;7.20;99.90
36372;DHT22;22398;51.346;12.372;2023-04-15T06:57:46;7.30;99.90
36372;DHT22;22398;51.346;12.372;2023-04-15T07:02:51;7.30;99.90
36372;DHT22;22398;51.346;12.372;2023-04-15T07:07:56;7.30;99.90
36372;DHT22;22398;51.346;12.372;2023-04-15T07:13:00;7.40;99.90
36372;DHT22;22398;51.346;12.372;2023-04-15T07:18:05;7.40;99.90
36372;DHT22;22398;51.346;12.372;2023-04-15T07:23:09;7.40;99.90
36372;DHT22;22398;51.346;12.372;2023-04-15T07:28:13;7.50;99.90
36372;DHT22;22398;51.346;12.372;2023-04-15T07:33:18;7.50;99.90
36372;DHT22;22398;51.346;12.372;2023-04-15T07:38:22;7.60;99.90
36372;DHT22;22398;51.346;12.372;2023-04-15T07:43:26;7.60;99.90
36372;DHT22;22398;51.346;12.372;2023-04-15T07:48:31;7.60;99.90
36372;DHT22;22398;51.346;12.372;2023-04-15T07:53:38;7.70;99.90
36372;DHT22;22398;51.346;12.372;2023-04-15T07:58:42;7.70;99.90
36372;DHT22;22398;51.346;12.372;2023-04-15T08:03:47;7.80;99.90
36372;DHT22;22398;51.346;12.372;2023-04-15T08:08:51;7.80;99.90
36372;DHT22;22398;51.346;12.372;2023-04-15T08:13:55;7.80;99.90
36372;DHT22;22398;51.346;12.372;2023-04-15T08:19:00;7.90;99.90
36372;DHT22;22398;51.346;12.372;2023-04-15T08:24:05;7.90;99.90
36372;DHT22;22398;51.346;12.372;2023-04-15T08:29:09;7.90;99.90
36372;DHT22;22398;51.346;12.372;2023-04-15T08:34:14;8.00;99.90
36372;DHT22;22398;51.346;12.372;2023-04-15T08:39:19;8.00;99.90
36372;DHT22;22398;51.346;12.372;2023-04-15T08:44:23;8.10;99.90
36372;DHT22;22398;51.346;12.372;2023-04-15T08:49:29;8.20;99.90
36372;DHT22;22398;51.346;12.372;2023-04-15T08:54:33;8.20;99.90
36372;DHT22;22398;51.346;12.372;2023-04-15T08:59:37;8.30;99.90
36372;DHT22;22398;51.346;12.372;2023-04-15T09:04:43;8.30;99.90
36372;DHT22;22398;51.346;12.372;2023-04-15T09:09:47;8.40;99.90
36372;DHT22;22398;51.346;12.372;2023-04-15T09:14:52;8.50;99.90
36372;DHT22;22398;51.346;12.372;2023-04-15T09:20:09;8.60;99.90
36372;DHT22;22398;51.346;12.372;2023-04-15T09:25:27;8.70;99.90
36372;DHT22;22398;51.346;12.372;2023-04-15T09:30:33;8.80;99.90
36372;DHT22;22398;51.346;12.372;2023-04-15T09:35:38;8.80;99.90
36372;DHT22;22398;51.346;12.372;2023-04-15T09:40:41;8.80;99.90
36372;DHT22;22398;51.346;12.372;2023-04-15T09:45:49;8.90;99.90
36372;DHT22;22398;51.346;12.372;2023-04-15T09:50:57;9.00;99.90
36372;DHT22;22398;51.346;12.372;2023-04-15T09:56:01;9.00;99.90
36372;DHT22;22398;51.346;12.372;2023-04-15T10:01:05;9.10;99.90
36372;DHT22;22398;51.346;12.372;2023-04-15T10:06:11;9.10;99.90
36372;DHT22;22398;51.346;12.372;2023-04-15T10:11:16;9.20;99.90
36372;DHT22;22398;51.346;12.372;2023-04-15T10:16:22;9.20;99.90
36372;DHT22;22398;51.346;12.372;2023-04-15T10:21:30;9.30;99.90
36372;DHT22;22398;51.346;12.372;2023-04-15T10:26:34;9.50;99.90
36372;DHT22;22398;51.346;12.372;2023-04-15T10:31:39;9.60;99.90
36372;DHT22;22398;51.346;12.372;2023-04-15T10:36:44;9.60;99.90
36372;DHT22;22398;51.346;12.372;2023-04-15T10:42:05;9.50;99.90
36372;DHT22;22398;51.346;12.372;2023-04-15T10:47:10;9.60;99.90
36372;DHT22;22398;51.346;12.372;2023-04-15T10:52:17;9.60;99.90
36372;DHT22;22398;51.346;12.372;2023-04-15T10:57:24;9.70;99.90
36372;DHT22;22398;51.346;12.372;2023-04-15T11:02:38;9.80;99.90
36372;DHT22;22398;51.346;12.372;2023-04-15T11:07:52;9.80;99.90
36372;DHT22;22398;51.346;12.372;2023-04-15T11:12:57;9.80;99.90
36372;DHT22;22398;51.346;12.372;2023-04-15T11:18:08;9.90;99.90
36372;DHT22;22398;51.346;12.372;2023-04-15T11:23:14;10.00;99.90
36372;DHT22;22398;51.346;12.372;2023-04-15T11:28:18;10.10;99.90
36372;DHT22;22398;51.346;12.372;2023-04-15T11:33:22;10.10;99.90
36372;DHT22;22398;51.346;12.372;2023-04-15T11:38:27;10.10;99.90
36372;DHT22;22398;51.346;12.372;2023-04-15T11:43:31;10.10;99.90
36372;DHT22;22398;51.346;12.372;2023-04-15T11:48:40;10.10;99.90
36372;DHT22;22398;51.346;12.372;2023-04-15T11:53:46;10.00;99.90
36372;DHT22;22398;51.346;12.372;2023-04-15T11:58:51;10.00;99.90
36372;DHT22;22398;51.346;12.372;2023-04-15T12:03:55;10.00;99.90
36372;DHT22;22398;51.346;12.372;2023-04-15T12:09:09;10.20;99.90
36372;DHT22;22398;51.346;12.372;2023-04-15T12:14:21;10.20;99.90
36372;DHT22;22398;51.346;12.372;2023-04-15T12:19:27;10.30;99.90
36372;DHT22;22398;51.346;12.372;2023-04-15T12:24:32;10.50;99.90
36372;DHT22;22398;51.346;12.372;2023-04-15T12:29:37;10.50;99.90
36372;DHT22;22398;51.346;12.372;2023-04-15T12:34:43;10.60;99.90
36372;DHT22;22398;51.346;12.372;2023-04-15T12:39:49;10.60;99.90
36372;DHT22;22398;51.346;12.372;2023-04-15T12:44:53;10.70;99.90
36372;DHT22;22398;51.346;12.372;2023-04-15T12:49:56;10.80;99.90
36372;DHT22;22398;51.346;12.372;2023-04-15T12:55:01;10.90;99.90
36372;DHT22;22398;51.346;12.372;2023-04-15T13:00:05;11.00;99.90
36372;DHT22;22398;51.346;12.372;2023-04-15T13:05:10;11.00;99.90
36372;DHT22;22398;51.346;12.372;2023-04-15T13:10:17;10.90;99.90
36372;DHT22;22398;51.346;12.372;2023-04-15T13:15:20;10.90;99.90
36372;DHT22;22398;51.346;12.372;2023-04-15T13:20:24;10.90;99.90
36372;DHT22;22398;51.346;12.372;2023-04-15T13:25:29;10.90;99.90
36372;DHT22;22398;51.346;12.372;2023-04-15T13:30:32;11.00;99.90
36372;DHT22;22398;51.346;12.372;2023-04-15T13:35:35;10.90;99.90
36372;DHT22;22398;51.346;12.372;2023-04-15T13:40:40;10.80;99.90
36372;DHT22;22398;51.346;12.372;2023-04-15T13:45:45;10.80;99.90
36372;DHT22;22398;51.346;12.372;2023-04-15T13:50:49;10.80;99.90
36372;DHT22;22398;51.346;12.372;2023-04-15T13:55:54;10.80;99.90
36372;DHT22;22398;51.346;12.372;2023-04-15T14:00:57;10.70;99.90
36372;DHT22;22398;51.346;12.372;2023-04-15T14:06:03;10.70;99.90
36372;DHT22;22398;51.346;12.372;2023-04-15T14:11:08;10.80;99.90
36372;DHT22;22398;51.346;12.372;2023-04-15T14:16:12;10.80;99.90
36372;DHT22;22398;51.346;12.372;2023-04-15T14:21:15;10.70;99.90
36372;DHT22;22398;51.346;12.372;2023-04-15T14:26:20;10.60;99.90
36372;DHT22;22398;51.346;12.372;2023-04-15T14:31:23;10.50;99.90
36372;DHT22;22398;51.346;12.372;2023-04-15T14:36:26;10.60;99.90
36372;DHT22;22398;51.346;12.372;2023-04-15T14:41:31;10.60;99.90
36372;DHT22;22398;51.346;12.372;2023-04-15T14:46:34;10.60;99.90
36372;DHT22;22398;51.346;12.372;2023-04-15T14:51:37;10.60;99.90
36372;DHT22;22398;51.346;12.372;2023-04-15T14:56:44;10.70;99.90
36372;DHT22;22398;51.346;12.372;2023-04-15T15:01:47;10.70;99.90
36372;DHT22;22398;51.346;12.372;2023-04-15T15:06:51;10.70;99.90
36372;DHT22;22398;51.346;12.372;2023-04-15T15:11:56;10.70;99.90
36372;DHT22;22398;51.346;12.372;2023-04-15T15:17:00;10.80;99.90
36372;DHT22;22398;51.346;12.372;2023-04-15T15:22:04;10.90;99.90
36372;DHT22;22398;51.346;12.372;2023-04-15T15:27:09;10.80;99.90
36372;DHT22;22398;51.346;12.372;2023-04-15T15:32:13;10.80;99.90
36372;DHT22;22398;51.346;12.372;2023-04-15T15:37:17;10.80;99.90
36372;DHT22;22398;51.346;12.372;2023-04-15T15:42:22;10.80;99.90
36372;DHT22;22398;51.346;12.372;2023-04-15T15:47:26;10.80;99.90
36372;DHT22;22398;51.346;12.372;2023-04-15T15:52:29;10.80;99.90
36372;DHT22;22398;51.346;12.372;2023-04-15T15:57:34;10.80;99.90
36372;DHT22;22398;51.346;12.372;2023-04-15T16:02:38;10.90;99.90
36372;DHT22;22398;51.346;12.372;2023-04-15T16:08:01;11.00;99.90
36372;DHT22;22398;51.346;12.372;2023-04-15T16:13:06;10.90;99.90
36372;DHT22;22398;51.346;12.372;2023-04-15T16:18:11;10.90;99.90
36372;DHT22;22398;51.346;12.372;2023-04-15T16:23:15;10.90;99.90
36372;DHT22;22398;51.346;12.372;2023-04-15T16:28:20;10.90;99.90
36372;DHT22;22398;51.346;12.372;2023-04-15T16:33:28;10.90;99.90
36372;DHT22;22398;51.346;12.372;2023-04-15T16:38:31;10.90;99.90
36372;DHT22;22398;51.346;12.372;2023-04-15T16:43:36;10.90;99.90
36372;DHT22;22398;51.346;12.372;2023-04-15T16:48:39;10.90;99.90
36372;DHT22;22398;51.346;12.372;2023-04-15T16:53:42;10.90;99.90
36372;DHT22;22398;51.346;12.372;2023-04-15T16:58:47;10.80;99.90
36372;DHT22;22398;51.346;12.372;2023-04-15T17:03:50;10.80;99.90
36372;DHT22;22398;51.346;12.372;2023-04-15T17:08:57;10.70;99.90
36372;DHT22;22398;51.346;12.372;2023-04-15T17:14:02;10.80;99.90
36372;DHT22;22398;51.346;12.372;2023-04-15T17:19:07;10.70;99.90
36372;DHT22;22398;51.346;12.372;2023-04-15T17:24:10;10.70;99.90
36372;DHT22;22398;51.346;12.372;2023-04-15T17:29:15;10.60;99.90
36372;DHT22;22398;51.346;12.372;2023-04-15T17:34:19;10.60;99.90
36372;DHT22;22398;51.346;12.372;2023-04-15T17:39:23;10.60;99.90
36372;DHT22;22398;51.346;12.372;2023-04-15T17:44:28;10.50;99.90
36372;DHT22;22398;51.346;12.372;2023-04-15T17:49:31;10.50;99.90
36372;DHT22;22398;51.346;12.372;2023-04-15T17:54:35;10.40;99.90
36372;DHT22;22398;51.346;12.372;2023-04-15T17:59:40;10.30;99.90
36372;DHT22;22398;51.346;12.372;2023-04-15T18:04:45;10.30;99.90
36372;DHT22;22398;51.346;12.372;2023-04-15T18:09:48;10.30;99.90
36372;DHT22;22398;51.346;12.372;2023-04-15T18:14:54;10.30;99.90
36372;DHT22;22398;51.346;12.372;2023-04-15T18:19:57;10.30;99.90
36372;DHT22;22398;51.346;12.372;2023-04-15T18:25:00;10.30;99.90
36372;DHT22;22398;51.346;12.372;2023-04-15T18:30:08;10.30;99.90
36372;DHT22;22398;51.346;12.372;2023-04-15T18:35:12;10.20;99.90
36372;DHT22;22398;51.346;12.372;2023-04-15T18:40:18;10.20;99.90
36372;DHT22;22398;51.346;12.372;2023-04-15T18:45:23;10.10;99.90
36372;DHT22;22398;51.346;12.372;2023-04-15T18:50:26;10.10;99.90
36372;DHT22;22398;51.346;12.372;2023-04-15T18:55:30;10.10;99.90
36372;DHT22;22398;51.346;12.372;2023-04-15T19:00:35;10.10;99.90
36372;DHT22;22398;51.346;12.372;2023-04-15T19:05:43;10.10;99.90
36372;DHT22;22398;51.346;12.372;2023-04-15T19:10:46;10.20;99.90
36372;DHT22;22398;51.346;12.372;2023-04-15T19:15:51;10.20;99.90
36372;DHT22;22398;51.346;12.372;2023-04-15T19:20:55;10.20;99.90
36372;DHT22;22398;51.346;12.372;2023-04-15T19:26:00;10.30;99.90
36372;DHT22;22398;51.346;12.372;2023-04-15T19:31:05;10.20;99.90
36372;DHT22;22398;51.346;12.372;2023-04-15T19:36:08;10.20;99.90
36372;DHT22;22398;51.346;12.372;2023-04-15T19:41:12;10.30;99.90
36372;DHT22;22398;51.346;12.372;2023-04-15T19:46:17;10.20;99.90
36372;DHT22;22398;51.346;12.372;2023-04-15T19:51:21;10.20;99.90
36372;DHT22;22398;51.346;12.372;2023-04-15T19:56:25;10.20;99.90
36372;DHT22;22398;51.346;12.372;2023-04-15T20:01:30;10.20;99.90
36372;DHT22;22398;51.346;12.372;2023-04-15T20:06:34;10.20;99.90
36372;DHT22;22398;51.346;12.372;2023-04-15T20:11:37;10.20;99.90
36372;DHT22;22398;51.346;12.372;2023-04-15T20:17:02;10.30;99.90
36372;DHT22;22398;51.346;12.372;2023-04-15T20:22:07;10.20;99.90
36372;DHT22;22398;51.346;12.372;2023-04-15T20:27:10;10.20;99.90
36372;DHT22;22398;51.346;12.372;2023-04-15T20:32:16;10.30;99.90
36372;DHT22;22398;51.346;12.372;2023-04-15T20:37:19;10.30;99.90
36372;DHT22;22398;51.346;12.372;2023-04-15T20:42:23;10.20;99.90
36372;DHT22;22398;51.346;12.372;2023-04-15T20:47:29;10.30;99.90
36372;DHT22;22398;51.346;12.372;2023-04-15T20:52:32;10.20;99.90
36372;DHT22;22398;51.346;12.372;2023-04-15T20:57:36;10.30;99.90
36372;DHT22;22398;51.346;12.372;2023-04-15T21:02:41;10.30;99.90
36372;DHT22;22398;51.346;12.372;2023-04-15T21:07:45;10.30;99.90
36372;DHT22;22398;51.346;12.372;2023-04-15T21:12:48;10.30;99.90
36372;DHT22;22398;51.346;12.372;2023-04-15T21:17:53;10.20;99.90
36372;DHT22;22398;51.346;12.372;2023-04-15T21:22:56;10.20;99.90
36372;DHT22;22398;51.346;12.372;2023-04-15T21:28:00;10.10;99.90
36372;DHT22;22398;51.346;12.372;2023-04-15T21:33:05;10.10;99.90
36372;DHT22;22398;51.346;12.372;2023-04-15T21:38:09;10.10;99.90
36372;DHT22;22398;51.346;12.372;2023-04-15T21:43:12;10.10;99.90
36372;DHT22;22398;51.346;12.372;2023-04-15T21:48:16;10.00;99.90
36372;DHT22;22398;51.346;12.372;2023-04-15T21:53:20;9.90;99.90
36372;DHT22;22398;51.346;12.372;2023-04-15T21:58:23;9.90;99.90
36372;DHT22;22398;51.346;12.372;2023-04-15T22:03:29;9.90;99.90
36372;DHT22;22398;51.346;12.372;2023-04-15T22:08:35;10.00;99.90
36372;DHT22;22398;51.346;12.372;2023-04-15T22:13:54;10.00;99.90
36372;DHT22;22398;51.346;12.372;2023-04-15T22:18:59;10.00;99.90
36372;DHT22;22398;51.346;12.372;2023-04-15T22:24:04;10.00;99.90
36372;DHT22;22398;51.346;12.372;2023-04-15T22:29:28;10.00;99.90
36372;DHT22;22398;51.346;12.372;2023-04-15T22:34:33;10.00;99.90
36372;DHT22;22398;51.346;12.372;2023-04-15T22:39:36;10.00;99.90
36372;DHT22;22398;51.346;12.372;2023-04-15T22:44:40;10.10;99.90
36372;DHT22;22398;51.346;12.372;2023-04-15T22:49:44;10.00;99.90
36372;DHT22;22398;51.346;12.372;2023-04-15T22:54:47;10.00;99.90
36372;DHT22;22398;51.346;12.372;2023-04-15T22:59:51;10.00;99.90
36372;DHT22;22398;51.346;12.372;2023-04-15T23:04:56;10.00;99.90
36372;DHT22;22398;51.346;12.372;2023-04-15T23:10:00;10.00;99.90
36372;DHT22;22398;51.346;12.372;2023-04-15T23:15:04;10.00;99.90
36372;DHT22;22398;51.346;12.372;2023-04-15T23:20:10;10.00;99.90
36372;DHT22;22398;51.346;12.372;2023-04-15T23:25:14;10.00;99.90
36372;DHT22;22398;51.346;12.372;2023-04-15T23:30:18;10.00;99.90
36372;DHT22;22398;51.346;12.372;2023-04-15T23:35:24;10.00;99.90
36372;DHT22;22398;51.346;12.372;2023-04-15T23:40:28;10.00;99.90
36372;DHT22;22398;51.346;12.372;2023-04-15T23:45:32;10.00;99.90
36372;DHT22;22398;51.346;12.372;2023-04-15T23:50:37;10.00;99.90
36372;DHT22;22398;51.346;12.372;2023-04-15T23:55:40;9.90;99.90
